createdAt,value
2017-05-15T00:00:42.297Z,0
2017-05-15T00:01:25.250Z,0
2017-05-15T00:02:12.743Z,0
2017-05-15T00:02:55.742Z,0
2017-05-15T00:03:43.257Z,0
2017-05-15T00:04:26.266Z,0
2017-05-15T00:05:13.757Z,0
2017-05-15T00:06:01.739Z,0
2017-05-15T00:06:50.703Z,0
2017-05-15T00:07:38.229Z,0
2017-05-15T00:08:21.721Z,0
2017-05-15T00:09:08.686Z,0
2017-05-15T00:09:56.710Z,0
2017-05-15T00:10:44.623Z,0
2017-05-15T00:11:27.643Z,0
2017-05-15T00:12:15.147Z,0
2017-05-15T00:12:58.083Z,0
2017-05-15T00:13:45.571Z,0
2017-05-15T00:14:34.577Z,0
2017-05-15T00:15:22.090Z,0
2017-05-15T00:16:10.150Z,0
2017-05-15T00:16:58.032Z,0
2017-05-15T00:17:46.940Z,0
2017-05-15T00:18:34.505Z,0
2017-05-15T00:19:22.451Z,0
2017-05-15T00:20:10.428Z,0
2017-05-15T00:20:59.372Z,0
2017-05-15T00:21:46.969Z,0
2017-05-15T00:22:29.842Z,0
2017-05-15T00:23:17.396Z,0
2017-05-15T00:24:05.367Z,0
2017-05-15T00:24:53.337Z,0
2017-05-15T00:25:36.232Z,0
2017-05-15T00:26:23.831Z,0
2017-05-15T00:27:06.785Z,0
2017-05-15T00:27:54.307Z,0
2017-05-15T00:28:43.255Z,0
2017-05-15T00:29:30.811Z,0
2017-05-15T00:30:18.759Z,0
2017-05-15T00:31:07.352Z,0
2017-05-15T00:31:49.636Z,0
2017-05-15T00:32:37.184Z,0
2017-05-15T00:33:20.130Z,0
2017-05-15T00:34:07.701Z,0
2017-05-15T00:34:56.662Z,0
2017-05-15T00:35:44.173Z,0
2017-05-15T00:36:27.567Z,0
2017-05-15T00:37:14.615Z,0
2017-05-15T00:38:02.629Z,0
2017-05-15T00:38:50.576Z,0
2017-05-15T00:39:39.758Z,0
2017-05-15T00:40:27.048Z,0
2017-05-15T00:41:15.014Z,0
2017-05-15T00:41:57.999Z,0
2017-05-15T00:42:45.493Z,0
2017-05-15T00:43:33.415Z,0
2017-05-15T00:44:16.452Z,0
2017-05-15T00:45:04.010Z,0
2017-05-15T00:45:52.947Z,0
2017-05-15T00:46:40.809Z,0
2017-05-15T00:47:28.437Z,0
2017-05-15T00:48:16.338Z,0
2017-05-15T00:48:59.341Z,0
2017-05-15T00:49:46.850Z,0
2017-05-15T00:50:35.822Z,0
2017-05-15T00:51:23.361Z,0
2017-05-15T00:52:11.313Z,0
2017-05-15T00:52:59.309Z,0
2017-05-15T00:53:48.235Z,0
2017-05-15T00:54:35.755Z,0
2017-05-15T00:55:23.773Z,0
2017-05-15T00:56:06.749Z,0
2017-05-15T00:56:54.231Z,0
2017-05-15T00:57:42.169Z,0
2017-05-15T00:58:25.137Z,0
2017-05-15T00:59:12.653Z,0
2017-05-15T00:59:55.647Z,0
2017-05-15T01:00:43.169Z,0
2017-05-15T01:01:32.138Z,0
2017-05-15T01:02:19.665Z,0
2017-05-15T01:03:02.647Z,0
2017-05-15T01:03:50.163Z,0
2017-05-15T01:04:38.069Z,0
2017-05-15T01:05:21.044Z,0
2017-05-15T01:06:08.585Z,0
2017-05-15T01:06:51.546Z,0
2017-05-15T01:07:39.105Z,0
2017-05-15T01:08:27.025Z,0
2017-05-15T01:09:14.935Z,0
2017-05-15T01:10:03.960Z,0
2017-05-15T01:10:51.492Z,0
2017-05-15T01:11:34.439Z,0
2017-05-15T01:12:22.029Z,0
2017-05-15T01:13:09.935Z,0
2017-05-15T01:13:52.842Z,0
2017-05-15T01:14:40.455Z,0
2017-05-15T01:15:23.375Z,0
2017-05-15T01:16:10.891Z,0
2017-05-15T01:16:53.871Z,0
2017-05-15T01:17:41.390Z,0
2017-05-15T01:18:29.335Z,0
2017-05-15T01:19:18.287Z,0
2017-05-15T01:20:05.806Z,0
2017-05-15T01:20:53.813Z,0
2017-05-15T01:21:41.761Z,0
2017-05-15T01:22:30.773Z,0
2017-05-15T01:23:18.257Z,0
2017-05-15T01:24:01.232Z,0
2017-05-15T01:24:48.747Z,0
2017-05-15T01:25:31.715Z,0
2017-05-15T01:26:19.217Z,0
2017-05-15T01:27:07.174Z,0
2017-05-15T01:27:55.131Z,0
2017-05-15T01:28:43.143Z,0
2017-05-15T01:29:38.054Z,0
2017-05-15T01:30:38.560Z,0
2017-05-15T01:31:33.063Z,0
2017-05-15T01:32:27.698Z,0
2017-05-15T01:33:22.125Z,0
2017-05-15T01:34:15.640Z,0
2017-05-15T01:35:09.552Z,0
2017-05-15T01:36:04.510Z,0
2017-05-15T01:36:59.152Z,0
2017-05-15T01:37:53.599Z,0
2017-05-15T01:38:53.083Z,0
2017-05-15T01:39:47.064Z,0
2017-05-15T01:40:36.028Z,0
2017-05-15T01:41:29.547Z,0
2017-05-15T01:42:18.429Z,0
2017-05-15T01:43:13.017Z,0
2017-05-15T01:44:07.518Z,0
2017-05-15T01:45:01.109Z,0
2017-05-15T01:45:54.995Z,0
2017-05-15T01:46:49.519Z,0
2017-05-15T01:47:37.945Z,0
2017-05-15T01:48:32.441Z,0
2017-05-15T01:49:27.010Z,0
2017-05-15T01:50:20.483Z,0
2017-05-15T01:51:15.575Z,0
2017-05-15T01:52:09.948Z,0
2017-05-15T01:53:04.415Z,0
2017-05-15T01:53:58.970Z,0
2017-05-15T01:54:53.527Z,0
2017-05-15T01:55:47.029Z,0
2017-05-15T01:56:41.934Z,0
2017-05-15T01:57:30.514Z,0
2017-05-15T01:58:24.003Z,0
2017-05-15T01:59:17.968Z,0
2017-05-15T02:00:05.965Z,0
2017-05-15T02:01:05.957Z,0
2017-05-15T02:02:00.795Z,0
2017-05-15T02:02:55.340Z,0
2017-05-15T02:03:49.841Z,0
2017-05-15T02:04:55.365Z,0
2017-05-15T02:05:43.343Z,0
2017-05-15T02:06:37.358Z,0
2017-05-15T02:07:31.270Z,0
2017-05-15T02:08:20.270Z,0
2017-05-15T02:09:08.757Z,0
2017-05-15T02:10:02.249Z,0
2017-05-15T02:10:57.247Z,0
2017-05-15T02:11:52.010Z,0
2017-05-15T02:12:45.239Z,0
2017-05-15T02:13:33.226Z,0
2017-05-15T02:14:28.170Z,0
2017-05-15T02:15:21.643Z,0
2017-05-15T02:16:15.803Z,0
2017-05-15T02:17:09.636Z,0
2017-05-15T02:17:58.533Z,0
2017-05-15T02:18:53.048Z,0
2017-05-15T02:19:46.577Z,0
2017-05-15T02:20:40.497Z,0
2017-05-15T02:21:35.785Z,0
2017-05-15T02:22:41.047Z,0
2017-05-15T02:23:34.914Z,0
2017-05-15T02:24:29.902Z,0
2017-05-15T02:25:24.423Z,0
2017-05-15T02:26:18.929Z,0
2017-05-15T02:27:13.428Z,0
2017-05-15T02:28:07.937Z,0
2017-05-15T02:29:02.499Z,0
2017-05-15T02:29:56.033Z,0
2017-05-15T02:30:55.953Z,0
2017-05-15T02:31:50.451Z,0
2017-05-15T02:32:43.863Z,0
2017-05-15T02:33:44.105Z,0
2017-05-15T02:34:38.739Z,0
2017-05-15T02:35:38.275Z,0
2017-05-15T02:36:32.677Z,0
2017-05-15T02:37:26.193Z,0
2017-05-15T02:38:21.100Z,0
2017-05-15T02:39:20.689Z,0
2017-05-15T02:40:14.624Z,0
2017-05-15T02:41:08.533Z,0
2017-05-15T02:42:02.507Z,0
2017-05-15T02:42:56.456Z,0
2017-05-15T02:43:50.437Z,0
2017-05-15T02:44:45.469Z,0
2017-05-15T02:45:39.913Z,0
2017-05-15T02:46:34.417Z,0
2017-05-15T02:47:28.947Z,0
2017-05-15T02:48:22.490Z,0
2017-05-15T02:49:10.429Z,0
2017-05-15T02:49:59.436Z,0
2017-05-15T02:50:53.953Z,0
2017-05-15T02:51:42.427Z,4
2017-05-15T02:52:30.945Z,4
2017-05-15T02:53:19.468Z,4
2017-05-15T02:54:13.987Z,4
2017-05-15T02:55:08.492Z,0
2017-05-15T02:56:03.053Z,4
2017-05-15T02:57:02.557Z,4
2017-05-15T02:57:56.437Z,4
2017-05-15T02:58:45.443Z,4
2017-05-15T02:59:38.993Z,4
2017-05-15T03:00:33.963Z,8
2017-05-15T03:01:28.422Z,4
2017-05-15T03:02:27.935Z,8
2017-05-15T03:03:21.918Z,8
2017-05-15T03:04:09.867Z,12
2017-05-15T03:05:03.781Z,12
2017-05-15T03:05:52.912Z,12
2017-05-15T03:06:47.245Z,12
2017-05-15T03:07:35.811Z,12
2017-05-15T03:08:35.342Z,16
2017-05-15T03:09:24.266Z,20
2017-05-15T03:10:18.783Z,20
2017-05-15T03:11:13.351Z,24
2017-05-15T03:12:01.868Z,28
2017-05-15T03:12:55.351Z,32
2017-05-15T03:13:49.333Z,36
2017-05-15T03:14:38.219Z,40
2017-05-15T03:15:31.758Z,44
2017-05-15T03:16:25.755Z,52
2017-05-15T03:17:14.674Z,56
2017-05-15T03:18:09.235Z,64
2017-05-15T03:19:02.744Z,72
2017-05-15T03:19:57.667Z,76
2017-05-15T03:20:51.179Z,88
2017-05-15T03:21:45.196Z,96
2017-05-15T03:22:39.070Z,108
2017-05-15T03:23:28.044Z,116
2017-05-15T03:24:21.554Z,132
2017-05-15T03:25:15.553Z,140
2017-05-15T03:26:09.575Z,156
2017-05-15T03:26:58.784Z,168
2017-05-15T03:27:46.960Z,184
2017-05-15T03:28:41.485Z,204
2017-05-15T03:29:35.961Z,220
2017-05-15T03:30:29.537Z,240
2017-05-15T03:31:18.477Z,256
2017-05-15T03:32:12.030Z,280
2017-05-15T03:33:05.950Z,300
2017-05-15T03:33:54.935Z,320
2017-05-15T03:34:48.477Z,348
2017-05-15T03:35:42.439Z,372
2017-05-15T03:36:36.348Z,400
2017-05-15T03:37:30.422Z,428
2017-05-15T03:38:18.290Z,452
2017-05-15T03:39:07.257Z,484
2017-05-15T03:39:55.721Z,512
2017-05-15T03:40:49.231Z,544
2017-05-15T03:41:43.249Z,576
2017-05-15T03:42:37.134Z,608
2017-05-15T03:43:26.160Z,644
2017-05-15T03:44:19.617Z,684
2017-05-15T03:45:20.630Z,728
2017-05-15T03:46:14.037Z,764
2017-05-15T03:47:14.040Z,808
2017-05-15T03:48:09.165Z,852
2017-05-15T03:49:02.686Z,900
2017-05-15T03:50:02.476Z,952
2017-05-15T03:50:51.412Z,1004
2017-05-15T03:51:45.940Z,1056
2017-05-15T03:52:40.484Z,1108
2017-05-15T03:53:35.008Z,1156
2017-05-15T03:54:29.513Z,1204
2017-05-15T03:55:23.014Z,1256
2017-05-15T03:56:22.987Z,1320
2017-05-15T03:57:11.924Z,1372
2017-05-15T03:58:05.445Z,1424
2017-05-15T03:58:59.409Z,1480
2017-05-15T03:59:53.369Z,1536
2017-05-15T04:00:47.675Z,1592
2017-05-15T04:01:42.431Z,1648
2017-05-15T04:02:35.761Z,1696
2017-05-15T04:03:30.132Z,1752
2017-05-15T04:04:17.815Z,1796
2017-05-15T04:05:12.629Z,1848
2017-05-15T04:06:01.311Z,1892
2017-05-15T04:06:56.069Z,1948
2017-05-15T04:07:50.257Z,2004
2017-05-15T04:08:44.740Z,2056
2017-05-15T04:09:39.405Z,2108
2017-05-15T04:10:38.743Z,2168
2017-05-15T04:11:32.713Z,2216
2017-05-15T04:12:22.137Z,2264
2017-05-15T04:13:10.153Z,2316
2017-05-15T04:14:04.686Z,2364
2017-05-15T04:14:59.540Z,2460
2017-05-15T04:15:58.803Z,2512
2017-05-15T04:16:52.681Z,2556
2017-05-15T04:17:41.692Z,2600
2017-05-15T04:18:35.158Z,2688
2017-05-15T04:19:24.145Z,2732
2017-05-15T04:20:12.148Z,2776
2017-05-15T04:20:59.645Z,2824
2017-05-15T04:21:47.544Z,2868
2017-05-15T04:22:36.547Z,2916
2017-05-15T04:23:24.053Z,2960
2017-05-15T04:24:07.018Z,3000
2017-05-15T04:24:54.557Z,3060
2017-05-15T04:25:42.594Z,3100
2017-05-15T04:26:30.461Z,3144
2017-05-15T04:27:13.428Z,3184
2017-05-15T04:28:00.944Z,3232
2017-05-15T04:28:43.919Z,3344
2017-05-15T04:29:31.479Z,3544
2017-05-15T04:30:20.452Z,3612
2017-05-15T04:31:08.528Z,3712
2017-05-15T04:31:55.905Z,3772
2017-05-15T04:32:38.872Z,3740
2017-05-15T04:33:26.365Z,3860
2017-05-15T04:34:14.812Z,4292
2017-05-15T04:35:03.330Z,4544
2017-05-15T04:35:50.800Z,4404
2017-05-15T04:36:38.789Z,4404
2017-05-15T04:37:21.733Z,4440
2017-05-15T04:38:09.295Z,4620
2017-05-15T04:38:57.231Z,4772
2017-05-15T04:39:46.156Z,5160
2017-05-15T04:40:33.689Z,5660
2017-05-15T04:41:22.024Z,6140
2017-05-15T04:42:09.733Z,6324
2017-05-15T04:42:52.573Z,6460
2017-05-15T04:43:40.317Z,6616
2017-05-15T04:44:23.084Z,6808
2017-05-15T04:45:10.644Z,7164
2017-05-15T04:45:59.944Z,7272
2017-05-15T04:46:47.552Z,7424
2017-05-15T04:47:30.033Z,7576
2017-05-15T04:48:18.016Z,7624
2017-05-15T04:49:00.715Z,7276
2017-05-15T04:49:54.056Z,7508
2017-05-15T04:50:37.034Z,7764
2017-05-15T04:51:25.549Z,7936
2017-05-15T04:52:19.051Z,8504
2017-05-15T04:53:02.366Z,8724
2017-05-15T04:53:49.566Z,8860
2017-05-15T04:54:38.563Z,9164
2017-05-15T04:55:26.055Z,8692
2017-05-15T04:56:14.556Z,8308
2017-05-15T04:57:01.987Z,9448
2017-05-15T04:57:50.943Z,9112
2017-05-15T04:58:38.537Z,8936
2017-05-15T04:59:26.786Z,9344
2017-05-15T05:00:14.972Z,9124
2017-05-15T05:01:03.379Z,8960
2017-05-15T05:01:51.398Z,8672
2017-05-15T05:02:39.344Z,8304
2017-05-15T05:03:33.333Z,8068
2017-05-15T05:04:21.287Z,8036
2017-05-15T05:05:10.281Z,8280
2017-05-15T05:05:57.759Z,8492
2017-05-15T05:06:46.769Z,8608
2017-05-15T05:07:35.287Z,8408
2017-05-15T05:08:22.802Z,8244
2017-05-15T05:09:10.741Z,8380
2017-05-15T05:09:58.724Z,8656
2017-05-15T05:10:53.623Z,9020
2017-05-15T05:11:41.302Z,9308
2017-05-15T05:12:36.154Z,9696
2017-05-15T05:13:30.636Z,9896
2017-05-15T05:14:19.244Z,9948
2017-05-15T05:15:06.774Z,9900
2017-05-15T05:15:55.710Z,9972
2017-05-15T05:16:43.274Z,10184
2017-05-15T05:17:31.230Z,10372
2017-05-15T05:18:19.207Z,10536
2017-05-15T05:19:07.138Z,10536
2017-05-15T05:19:56.081Z,10352
2017-05-15T05:20:55.577Z,10192
2017-05-15T05:21:49.598Z,10056
2017-05-15T05:22:38.520Z,10356
2017-05-15T05:23:26.067Z,10988
2017-05-15T05:24:15.046Z,12036
2017-05-15T05:25:03.522Z,12764
2017-05-15T05:25:52.106Z,12312
2017-05-15T05:26:40.560Z,12320
2017-05-15T05:27:35.108Z,12416
2017-05-15T05:28:22.688Z,12808
2017-05-15T05:29:10.657Z,13104
2017-05-15T05:29:53.629Z,12888
2017-05-15T05:30:41.215Z,12884
2017-05-15T05:31:30.139Z,12712
2017-05-15T05:32:17.679Z,12652
2017-05-15T05:33:12.685Z,12756
2017-05-15T05:34:07.102Z,12860
2017-05-15T05:35:00.727Z,13472
2017-05-15T05:35:48.657Z,13024
2017-05-15T05:36:36.679Z,12736
2017-05-15T05:37:24.662Z,13504
2017-05-15T05:38:24.604Z,13504
2017-05-15T05:39:24.528Z,14560
2017-05-15T05:40:24.534Z,14944
2017-05-15T05:41:12.682Z,15136
2017-05-15T05:41:55.492Z,15104
2017-05-15T05:42:49.005Z,13656
2017-05-15T05:43:48.966Z,15456
2017-05-15T05:44:37.894Z,16896
2017-05-15T05:45:26.423Z,17120
2017-05-15T05:46:13.787Z,17088
2017-05-15T05:47:01.882Z,18528
2017-05-15T05:48:01.984Z,19840
2017-05-15T05:49:01.794Z,20608
2017-05-15T05:50:01.848Z,28576
2017-05-15T05:50:55.823Z,30816
2017-05-15T05:51:44.791Z,16640
2017-05-15T05:52:33.298Z,9600
2017-05-15T05:53:21.866Z,22144
2017-05-15T05:54:09.351Z,24640
2017-05-15T05:54:57.335Z,20384
2017-05-15T05:55:46.278Z,25568
2017-05-15T05:56:34.841Z,25504
2017-05-15T05:57:23.393Z,17888
2017-05-15T05:58:10.870Z,21664
2017-05-15T05:58:59.872Z,22944
2017-05-15T05:59:47.402Z,24192
2017-05-15T06:00:47.555Z,26016
2017-05-15T06:01:36.274Z,27552
2017-05-15T06:02:37.120Z,27008
2017-05-15T06:03:36.412Z,25376
2017-05-15T06:04:31.412Z,23648
2017-05-15T06:05:18.885Z,23424
2017-05-15T06:06:12.891Z,24800
2017-05-15T06:07:06.848Z,27328
2017-05-15T06:07:55.775Z,29472
2017-05-15T06:08:44.396Z,30720
2017-05-15T06:09:32.891Z,31072
2017-05-15T06:10:26.430Z,30304
2017-05-15T06:11:14.406Z,29120
2017-05-15T06:11:57.297Z,28640
2017-05-15T06:12:51.883Z,28224
2017-05-15T06:13:46.426Z,28384
2017-05-15T06:14:51.923Z,28640
2017-05-15T06:15:46.917Z,30816
2017-05-15T06:16:41.379Z,32864
2017-05-15T06:17:40.985Z,34720
2017-05-15T06:18:34.901Z,35840
2017-05-15T06:19:28.891Z,36096
2017-05-15T06:20:12.038Z,35776
2017-05-15T06:21:00.382Z,35040
2017-05-15T06:21:48.964Z,35200
2017-05-15T06:22:43.489Z,36736
2017-05-15T06:23:37.973Z,38848
2017-05-15T06:24:32.536Z,40864
2017-05-15T06:25:32.125Z,42880
2017-05-15T06:26:26.066Z,43232
2017-05-15T06:27:08.986Z,42176
2017-05-15T06:27:57.534Z,40384
2017-05-15T06:28:51.143Z,39136
2017-05-15T06:29:45.076Z,38240
2017-05-15T06:30:34.025Z,37536
2017-05-15T06:31:22.559Z,36800
2017-05-15T06:32:16.102Z,36992
2017-05-15T06:33:11.063Z,35712
2017-05-15T06:34:11.655Z,35232
2017-05-15T06:35:05.174Z,34976
2017-05-15T06:36:00.461Z,36800
2017-05-15T06:36:48.659Z,39488
2017-05-15T06:37:36.249Z,40096
2017-05-15T06:38:25.208Z,40256
2017-05-15T06:39:19.768Z,38496
2017-05-15T06:40:13.223Z,37056
2017-05-15T06:41:13.302Z,36544
2017-05-15T06:42:07.220Z,38592
2017-05-15T06:42:56.225Z,38368
2017-05-15T06:43:49.806Z,39456
2017-05-15T06:44:38.720Z,40320
2017-05-15T06:45:33.274Z,40768
2017-05-15T06:46:21.817Z,39968
2017-05-15T06:47:15.355Z,38816
2017-05-15T06:48:09.292Z,38208
2017-05-15T06:49:03.267Z,38592
2017-05-15T06:49:58.263Z,40544
2017-05-15T06:50:51.746Z,40544
2017-05-15T06:51:40.875Z,44032
2017-05-15T06:52:40.296Z,44352
2017-05-15T06:53:34.230Z,45632
2017-05-15T06:54:28.211Z,45120
2017-05-15T06:55:22.240Z,46176
2017-05-15T06:56:11.291Z,48480
2017-05-15T06:56:59.791Z,50016
2017-05-15T06:57:53.302Z,52320
2017-05-15T06:58:41.288Z,53632
2017-05-15T06:59:29.255Z,55104
2017-05-15T07:00:18.219Z,55104
2017-05-15T07:01:11.798Z,55424
2017-05-15T07:01:54.728Z,54304
2017-05-15T07:02:55.316Z,54944
2017-05-15T07:03:48.768Z,55040
2017-05-15T07:04:42.776Z,56608
2017-05-15T07:05:30.748Z,57696
2017-05-15T07:06:19.685Z,59008
2017-05-15T07:07:19.289Z,58176
2017-05-15T07:08:13.254Z,59232
2017-05-15T07:09:08.176Z,57856
2017-05-15T07:10:01.707Z,58432
2017-05-15T07:10:50.758Z,58432
2017-05-15T07:11:39.229Z,57472
2017-05-15T07:12:27.810Z,56416
2017-05-15T07:13:21.341Z,54976
2017-05-15T07:14:04.312Z,53248
2017-05-15T07:14:52.804Z,52512
2017-05-15T07:15:47.361Z,52544
2017-05-15T07:16:40.970Z,54112
2017-05-15T07:17:29.412Z,54880
2017-05-15T07:18:17.998Z,54880
2017-05-15T07:19:11.538Z,53664
2017-05-15T07:20:05.626Z,53952
2017-05-15T07:20:59.714Z,51904
2017-05-15T07:21:48.514Z,51072
2017-05-15T07:22:36.973Z,50816
2017-05-15T07:23:25.607Z,52160
2017-05-15T07:24:19.630Z,53888
2017-05-15T07:25:19.009Z,56448
2017-05-15T07:26:14.560Z,59040
2017-05-15T07:27:08.007Z,58848
2017-05-15T07:28:02.517Z,57728
2017-05-15T07:28:56.219Z,56896
2017-05-15T07:29:51.255Z,57472
2017-05-15T07:30:39.542Z,57120
2017-05-15T07:31:28.545Z,58624
2017-05-15T07:32:22.144Z,60352
2017-05-15T07:33:15.805Z,61152
2017-05-15T07:34:04.984Z,60608
2017-05-15T07:34:58.828Z,59616
2017-05-15T07:35:53.538Z,58592
2017-05-15T07:36:47.125Z,58912
2017-05-15T07:37:47.101Z,61184
2017-05-15T07:38:40.972Z,62336
2017-05-15T07:39:34.998Z,62688
2017-05-15T07:40:30.050Z,61344
2017-05-15T07:41:23.465Z,61152
2017-05-15T07:42:11.473Z,61600
2017-05-15T07:43:00.535Z,61536
2017-05-15T07:43:54.059Z,61184
2017-05-15T07:44:47.995Z,61600
2017-05-15T07:45:41.973Z,62592
2017-05-15T07:46:35.946Z,62240
2017-05-15T07:47:29.926Z,64736
2017-05-15T07:48:24.916Z,63840
2017-05-15T07:49:24.471Z,61600
2017-05-15T07:50:12.422Z,60672
2017-05-15T07:51:07.396Z,60000
2017-05-15T07:52:00.915Z,60480
2017-05-15T07:52:48.908Z,60672
2017-05-15T07:53:37.830Z,60544
2017-05-15T07:54:32.457Z,60512
2017-05-15T07:55:25.978Z,58080
2017-05-15T07:56:15.118Z,58272
2017-05-15T07:57:14.509Z,57824
2017-05-15T07:58:09.478Z,58592
2017-05-15T07:59:03.992Z,59840
2017-05-15T07:59:57.599Z,60608
2017-05-15T08:00:52.114Z,62016
2017-05-15T08:01:40.640Z,64224
2017-05-15T08:02:29.149Z,66816
2017-05-15T08:03:18.226Z,68288
2017-05-15T08:04:05.290Z,68992
2017-05-15T08:05:11.759Z,67744
2017-05-15T08:06:00.495Z,66496
2017-05-15T08:06:48.263Z,67072
2017-05-15T08:07:36.946Z,67744
2017-05-15T08:08:36.675Z,68608
2017-05-15T08:09:30.707Z,70112
2017-05-15T08:10:13.701Z,70976
2017-05-15T08:11:07.261Z,72512
2017-05-15T08:12:00.884Z,74080
2017-05-15T08:12:48.846Z,76320
2017-05-15T08:13:38.002Z,78048
2017-05-15T08:14:31.500Z,77408
2017-05-15T08:15:19.223Z,74016
2017-05-15T08:16:08.756Z,71552
2017-05-15T08:17:02.201Z,66560
2017-05-15T08:17:55.763Z,64640
2017-05-15T08:18:45.167Z,64576
2017-05-15T08:19:33.771Z,65728
2017-05-15T08:20:26.995Z,66496
2017-05-15T08:21:16.407Z,65760
2017-05-15T08:22:10.821Z,65728
2017-05-15T08:23:10.151Z,65312
2017-05-15T08:23:53.326Z,64896
2017-05-15T08:24:47.418Z,65152
2017-05-15T08:25:41.902Z,64864
2017-05-15T08:26:47.948Z,67168
2017-05-15T08:27:30.750Z,67552
2017-05-15T08:28:19.271Z,68128
2017-05-15T08:29:13.028Z,70304
2017-05-15T08:30:07.855Z,73280
2017-05-15T08:31:01.514Z,74528
2017-05-15T08:31:49.482Z,75008
2017-05-15T08:32:43.523Z,72768
2017-05-15T08:33:26.471Z,70496
2017-05-15T08:34:32.040Z,68000
2017-05-15T08:35:14.620Z,67296
2017-05-15T08:36:09.590Z,68224
2017-05-15T08:37:09.065Z,68864
2017-05-15T08:37:58.084Z,67584
2017-05-15T08:38:46.528Z,66208
2017-05-15T08:39:39.879Z,64160
2017-05-15T08:40:33.816Z,62912
2017-05-15T08:41:22.107Z,64064
2017-05-15T08:42:09.833Z,66816
2017-05-15T08:43:03.620Z,69600
2017-05-15T08:43:58.045Z,73664
2017-05-15T08:44:46.978Z,73152
2017-05-15T08:45:35.472Z,69824
2017-05-15T08:46:28.623Z,68000
2017-05-15T08:47:17.700Z,65632
2017-05-15T08:48:11.583Z,66112
2017-05-15T08:49:11.285Z,67680
2017-05-15T08:50:00.318Z,72768
2017-05-15T08:50:48.954Z,73024
2017-05-15T08:51:43.717Z,74848
2017-05-15T08:52:42.994Z,74752
2017-05-15T08:53:31.468Z,74624
2017-05-15T08:54:25.179Z,73728
2017-05-15T08:55:19.153Z,73984
2017-05-15T08:56:12.726Z,74720
2017-05-15T08:57:12.952Z,73088
2017-05-15T08:58:06.978Z,70464
2017-05-15T08:59:02.391Z,68256
2017-05-15T08:59:56.513Z,66688
2017-05-15T09:00:50.109Z,67808
2017-05-15T09:01:45.106Z,69984
2017-05-15T09:02:44.636Z,70752
2017-05-15T09:03:33.581Z,72160
2017-05-15T09:04:28.412Z,72768
2017-05-15T09:05:27.633Z,53824
2017-05-15T09:06:16.771Z,72992
2017-05-15T09:07:09.992Z,71104
2017-05-15T09:07:58.985Z,68672
2017-05-15T09:08:47.795Z,65184
2017-05-15T09:09:41.556Z,64480
2017-05-15T09:10:35.011Z,68032
2017-05-15T09:11:18.452Z,67456
2017-05-15T09:12:12.869Z,60608
2017-05-15T09:13:06.519Z,68992
2017-05-15T09:14:06.220Z,67040
2017-05-15T09:15:00.378Z,61856
2017-05-15T09:15:55.352Z,69280
2017-05-15T09:16:55.768Z,75040
2017-05-15T09:17:44.053Z,73248
2017-05-15T09:18:31.916Z,72064
2017-05-15T09:19:20.912Z,77600
2017-05-15T09:20:14.464Z,74176
2017-05-15T09:21:08.333Z,77600
2017-05-15T09:22:03.432Z,77824
2017-05-15T09:22:51.889Z,75456
2017-05-15T09:23:45.370Z,78496
2017-05-15T09:24:39.387Z,76896
2017-05-15T09:25:28.267Z,74784
2017-05-15T09:26:21.854Z,76864
2017-05-15T09:27:17.003Z,76544
2017-05-15T09:28:04.511Z,73856
2017-05-15T09:29:04.421Z,77312
2017-05-15T09:29:53.488Z,73184
2017-05-15T09:30:42.382Z,71776
2017-05-15T09:31:30.464Z,70880
2017-05-15T09:32:30.004Z,66656
2017-05-15T09:33:24.104Z,66656
2017-05-15T09:34:12.065Z,66944
2017-05-15T09:35:06.978Z,69184
2017-05-15T09:36:00.779Z,71232
2017-05-15T09:36:54.465Z,75392
2017-05-15T09:37:43.591Z,70912
2017-05-15T09:38:30.822Z,75392
2017-05-15T09:39:30.623Z,72800
2017-05-15T09:40:19.658Z,73472
2017-05-15T09:41:07.777Z,76544
2017-05-15T09:41:56.696Z,77920
2017-05-15T09:42:45.160Z,78528
2017-05-15T09:43:38.727Z,16104
2017-05-15T09:44:27.737Z,81824
2017-05-15T09:45:21.237Z,81600
2017-05-15T09:46:09.467Z,78528
2017-05-15T09:46:57.196Z,77280
2017-05-15T09:47:51.165Z,77440
2017-05-15T09:48:46.114Z,77568
2017-05-15T09:49:34.742Z,81120
2017-05-15T09:50:23.224Z,83456
2017-05-15T09:51:16.896Z,83616
2017-05-15T09:52:04.768Z,83392
2017-05-15T09:52:59.690Z,83616
2017-05-15T09:54:00.327Z,82368
2017-05-15T09:54:48.868Z,83232
2017-05-15T09:55:42.398Z,84544
2017-05-15T09:56:31.355Z,84192
2017-05-15T09:57:25.006Z,82624
2017-05-15T09:58:13.904Z,83200
2017-05-15T09:59:07.406Z,85184
2017-05-15T09:59:55.362Z,81952
2017-05-15T10:00:43.416Z,82944
2017-05-15T10:01:32.525Z,88000
2017-05-15T10:02:25.954Z,87552
2017-05-15T10:03:14.951Z,23872
2017-05-15T10:04:08.649Z,24736
2017-05-15T10:05:02.454Z,22112
2017-05-15T10:05:50.386Z,25504
2017-05-15T10:06:45.421Z,96992
2017-05-15T10:07:38.937Z,96992
2017-05-15T10:08:32.932Z,99200
2017-05-15T10:09:26.866Z,28128
2017-05-15T10:10:21.855Z,30016
2017-05-15T10:11:16.466Z,29856
2017-05-15T10:12:11.006Z,32480
2017-05-15T10:13:05.453Z,48992
2017-05-15T10:13:59.959Z,65312
2017-05-15T10:14:54.533Z,84704
2017-05-15T10:15:54.107Z,34368
2017-05-15T10:16:49.236Z,78240
2017-05-15T10:17:43.702Z,98944
2017-05-15T10:18:36.761Z,76800
2017-05-15T10:19:31.120Z,26656
2017-05-15T10:20:20.039Z,24096
2017-05-15T10:21:13.191Z,23936
2017-05-15T10:22:13.438Z,29504
2017-05-15T10:23:01.611Z,98752
2017-05-15T10:23:56.612Z,22464
2017-05-15T10:24:50.230Z,94592
2017-05-15T10:25:43.819Z,92544
2017-05-15T10:26:32.799Z,93504
2017-05-15T10:27:26.702Z,92448
2017-05-15T10:28:26.778Z,90880
2017-05-15T10:29:21.569Z,90240
2017-05-15T10:30:14.907Z,91552
2017-05-15T10:30:57.648Z,93376
2017-05-15T10:31:51.655Z,98848
2017-05-15T10:32:45.597Z,101248
2017-05-15T10:33:33.591Z,101856
2017-05-15T10:34:27.564Z,102720
2017-05-15T10:35:16.589Z,18400
2017-05-15T10:36:05.214Z,17696
2017-05-15T10:36:58.757Z,98848
2017-05-15T10:37:58.243Z,93568
2017-05-15T10:38:52.679Z,94848
2017-05-15T10:39:40.678Z,96224
2017-05-15T10:40:35.653Z,94976
2017-05-15T10:41:30.216Z,94528
2017-05-15T10:42:24.807Z,94336
2017-05-15T10:43:13.284Z,95360
2017-05-15T10:44:01.792Z,96480
2017-05-15T10:44:56.306Z,97216
2017-05-15T10:45:49.893Z,97856
2017-05-15T10:46:44.706Z,98912
2017-05-15T10:47:44.325Z,97632
2017-05-15T10:48:44.942Z,17632
2017-05-15T10:49:33.641Z,19264
2017-05-15T10:50:27.352Z,17668
2017-05-15T10:51:22.497Z,89824
2017-05-15T10:52:11.034Z,14900
2017-05-15T10:52:59.151Z,85888
2017-05-15T10:53:53.158Z,83840
2017-05-15T10:54:42.312Z,81152
2017-05-15T10:55:30.656Z,81024
2017-05-15T10:56:24.196Z,81856
2017-05-15T10:57:18.050Z,82144
2017-05-15T10:58:12.875Z,83104
2017-05-15T10:59:06.756Z,83616
2017-05-15T10:59:54.573Z,87584
2017-05-15T11:00:42.647Z,92480
2017-05-15T11:01:37.641Z,97408
2017-05-15T11:02:25.259Z,105376
2017-05-15T11:03:14.206Z,108320
2017-05-15T11:04:02.801Z,90976
2017-05-15T11:04:51.287Z,26976
2017-05-15T11:05:40.409Z,22432
2017-05-15T11:06:33.402Z,86400
2017-05-15T11:07:21.384Z,81312
2017-05-15T11:08:15.271Z,70848
2017-05-15T11:09:10.300Z,69248
2017-05-15T11:10:03.841Z,70624
2017-05-15T11:11:03.910Z,74048
2017-05-15T11:11:57.828Z,83840
2017-05-15T11:12:45.828Z,88448
2017-05-15T11:13:39.849Z,96288
2017-05-15T11:14:27.905Z,99680
2017-05-15T11:15:22.740Z,100288
2017-05-15T11:16:16.319Z,95456
2017-05-15T11:17:05.272Z,91680
2017-05-15T11:17:53.847Z,91040
2017-05-15T11:18:48.391Z,88992
2017-05-15T11:19:41.913Z,89792
2017-05-15T11:20:30.913Z,89440
2017-05-15T11:21:19.609Z,61152
2017-05-15T11:22:19.067Z,85408
2017-05-15T11:23:13.985Z,74976
2017-05-15T11:24:02.511Z,91968
2017-05-15T11:24:50.075Z,19168
2017-05-15T11:25:45.041Z,17500
2017-05-15T11:26:38.862Z,23776
2017-05-15T11:27:32.560Z,19872
2017-05-15T11:28:20.525Z,46016
2017-05-15T11:29:15.420Z,83456
2017-05-15T11:30:03.990Z,83200
2017-05-15T11:30:51.593Z,74816
2017-05-15T11:31:34.524Z,80480
2017-05-15T11:32:22.416Z,84864